Back to Top

Language: 

My Weather Underground Personal Weather Station Historical Data with Graphs...

Delerius Weather Station Historical Data
Daily Summary for April 24, 2017 Units:  Metric    English   Both
« Previous Day
Next Day »
Daily Weekly Monthly Yearly Custom
  High: Low: Average:
Temperature: 14.1 °C 2.1 °C 9.4 °C
Dew Point: 7.5 °C -4.5 °C 3.4 °C
Humidity: 86 % 39 % 68 %
Wind Speed: 32.2 km/h 0 km/h 16.1 km/h
Wind Gust: 54.7 km/h - -
Wind:- - WNW
Pressure: 1019.2 hPa 1011.1 hPa -
Precipitation: 0 mm    
Historical Graphs
 
 
Tabular Data for April 24, 2017
Time Temperature Dew Point Pressure Wind Wind Speed Wind Gust Humidity Rainfall Rate (Hourly) solar Conditions
00:04 8.5 °C 6.1 °C 1018.8 hPa West 9.7 km/h 20.9 km/h 85 % 0 mm 0 W/m2
00:09 8.7 °C 6.3 °C 1019.2 hPa West 11.3 km/h 20.9 km/h 85 % 0 mm 0 W/m2
00:15 8.9 °C 6.3 °C 1018.8 hPa West 12.9 km/h 20.9 km/h 84 % 0 mm 0 W/m2
00:20 9.1 °C 6.6 °C 1018.8 hPa West 12.9 km/h 24.1 km/h 84 % 0 mm 0 W/m2
00:25 9.1 °C 6.6 °C 1018.8 hPa West 12.9 km/h 24.1 km/h 84 % 0 mm 0 W/m2
00:30 9.2 °C 6.6 °C 1018.8 hPa West 12.9 km/h 20.9 km/h 84 % 0 mm 0 W/m2
00:35 9.3 °C 6.7 °C 1018.8 hPa West 11.3 km/h 19.3 km/h 84 % 0 mm 0 W/m2
00:40 9.3 °C 6.7 °C 1018.8 hPa West 11.3 km/h 17.7 km/h 84 % 0 mm 0 W/m2
00:45 9.3 °C 6.9 °C 1018.5 hPa West 12.9 km/h 22.5 km/h 85 % 0 mm 0 W/m2
00:50 9.3 °C 6.9 °C 1018.5 hPa WSW 12.9 km/h 22.5 km/h 85 % 0 mm 0 W/m2
00:55 9.3 °C 6.9 °C 1018.5 hPa WSW 14.5 km/h 29 km/h 85 % 0 mm 0 W/m2
01:01 9.3 °C 6.9 °C 1018.5 hPa WSW 16.1 km/h 29 km/h 85 % 0 mm 0 W/m2
01:06 9.3 °C 6.9 °C 1018.5 hPa WSW 14.5 km/h 25.7 km/h 85 % 0 mm 0 W/m2
01:11 9.3 °C 7.1 °C 1018.2 hPa West 14.5 km/h 24.1 km/h 86 % 0 mm 0 W/m2
01:16 9.3 °C 7.1 °C 1018.2 hPa WSW 16.1 km/h 24.1 km/h 86 % 0 mm 0 W/m2
01:21 9.3 °C 7.1 °C 1018.2 hPa WSW 16.1 km/h 24.1 km/h 86 % 0 mm 0 W/m2
01:26 9.3 °C 7.1 °C 1018.2 hPa WSW 12.9 km/h 22.5 km/h 86 % 0 mm 0 W/m2
01:31 9.4 °C 7.2 °C 1018.2 hPa WSW 9.7 km/h 17.7 km/h 86 % 0 mm 0 W/m2
01:36 9.4 °C 7.2 °C 1018.2 hPa WSW 9.7 km/h 17.7 km/h 86 % 0 mm 0 W/m2
01:41 9.4 °C 7.2 °C 1017.8 hPa WSW 9.7 km/h 16.1 km/h 86 % 0 mm 0 W/m2
01:46 9.4 °C 7.2 °C 1017.8 hPa WSW 8 km/h 14.5 km/h 86 % 0 mm 0 W/m2
01:51 9.4 °C 7.2 °C 1017.8 hPa WSW 6.4 km/h 12.9 km/h 86 % 0 mm 0 W/m2
01:56 9.5 °C 7.3 °C 1017.8 hPa WSW 6.4 km/h 14.5 km/h 86 % 0 mm 0 W/m2
02:01 9.5 °C 7.3 °C 1017.8 hPa WSW 6.4 km/h 16.1 km/h 86 % 0 mm 0 W/m2
02:06 9.6 °C 7.4 °C 1017.5 hPa WSW 9.7 km/h 17.7 km/h 86 % 0 mm 0 W/m2
02:11 9.7 °C 7.4 °C 1017.5 hPa WSW 9.7 km/h 17.7 km/h 86 % 0 mm 0 W/m2
02:16 9.7 °C 7.4 °C 1017.5 hPa West 8 km/h 14.5 km/h 86 % 0 mm 0 W/m2
02:21 9.8 °C 7.4 °C 1017.5 hPa West 9.7 km/h 19.3 km/h 85 % 0 mm 0 W/m2
02:26 9.9 °C 7.5 °C 1017.2 hPa West 11.3 km/h 19.3 km/h 85 % 0 mm 0 W/m2
02:36 10 °C 7.4 °C 1017.2 hPa West 12.9 km/h 22.5 km/h 84 % 0 mm 0 W/m2
02:41 10 °C 7.4 °C 1017.2 hPa West 11.3 km/h 19.3 km/h 84 % 0 mm 0 W/m2
02:46 10 °C 7.2 °C 1016.8 hPa West 11.3 km/h 17.7 km/h 83 % 0 mm 0 W/m2
02:51 9.9 °C 7.2 °C 1016.8 hPa West 11.3 km/h 17.7 km/h 83 % 0 mm 0 W/m2
02:56 9.9 °C 7.2 °C 1016.8 hPa West 12.9 km/h 22.5 km/h 83 % 0 mm 0 W/m2
03:01 9.9 °C 7.2 °C 1016.8 hPa West 11.3 km/h 22.5 km/h 83 % 0 mm 0 W/m2
03:06 9.9 °C 7.2 °C 1016.8 hPa West 9.7 km/h 17.7 km/h 83 % 0 mm 0 W/m2
03:11 9.9 °C 7.2 °C 1016.8 hPa WSW 6.4 km/h 17.7 km/h 83 % 0 mm 0 W/m2
03:16 9.9 °C 6.9 °C 1016.5 hPa WSW 6.4 km/h 17.7 km/h 82 % 0 mm 0 W/m2
03:21 9.9 °C 6.9 °C 1016.5 hPa West 4.8 km/h 12.9 km/h 82 % 0 mm 0 W/m2
03:26 9.9 °C 6.9 °C 1016.5 hPa West 4.8 km/h 12.9 km/h 82 % 0 mm 0 W/m2
03:31 9.8 °C 6.7 °C 1016.5 hPa West 6.4 km/h 16.1 km/h 81 % 0 mm 0 W/m2
03:37 9.8 °C 6.7 °C 1016.5 hPa West 8 km/h 17.7 km/h 81 % 0 mm 0 W/m2
03:42 9.9 °C 6.8 °C 1016.1 hPa WSW 9.7 km/h 19.3 km/h 81 % 0 mm 0 W/m2
03:47 9.9 °C 6.8 °C 1016.1 hPa WSW 9.7 km/h 19.3 km/h 81 % 0 mm 0 W/m2
03:52 9.9 °C 6.8 °C 1016.1 hPa West 8 km/h 12.9 km/h 81 % 0 mm 0 W/m2
03:57 9.9 °C 6.8 °C 1016.1 hPa West 6.4 km/h 12.9 km/h 81 % 0 mm 0 W/m2
04:02 9.9 °C 6.8 °C 1015.8 hPa West 6.4 km/h 14.5 km/h 81 % 0 mm 0 W/m2
04:07 9.9 °C 6.8 °C 1015.8 hPa West 8 km/h 25.7 km/h 81 % 0 mm 0 W/m2
04:12 9.9 °C 6.8 °C 1015.8 hPa West 9.7 km/h 25.7 km/h 81 % 0 mm 0 W/m2
04:17 9.9 °C 6.8 °C 1015.8 hPa West 8 km/h 19.3 km/h 81 % 0 mm 0 W/m2
04:22 9.9 °C 6.8 °C 1015.8 hPa West 6.4 km/h 17.7 km/h 81 % 0 mm 0 W/m2
04:27 9.9 °C 6.8 °C 1015.8 hPa West 8 km/h 16.1 km/h 81 % 0 mm 0 W/m2
04:32 9.9 °C 6.9 °C 1015.8 hPa West 9.7 km/h 22.5 km/h 82 % 0 mm 0 W/m2
04:37 9.9 °C 6.9 °C 1015.5 hPa West 11.3 km/h 22.5 km/h 82 % 0 mm 0 W/m2
04:42 9.9 °C 6.9 °C 1015.5 hPa West 11.3 km/h 32.2 km/h 82 % 0 mm 0 W/m2
04:47 9.9 °C 6.9 °C 1015.5 hPa West 12.9 km/h 32.2 km/h 82 % 0 mm 0 W/m2
04:52 9.9 °C 6.9 °C 1015.1 hPa West 11.3 km/h 25.7 km/h 82 % 0 mm 0 W/m2
04:57 9.8 °C 6.9 °C 1015.5 hPa West 9.7 km/h 22.5 km/h 82 % 0 mm 0 W/m2
05:02 9.8 °C 6.9 °C 1015.1 hPa West 8 km/h 22.5 km/h 82 % 0 mm 0 W/m2
05:07 9.8 °C 6.9 °C 1015.1 hPa West 8 km/h 24.1 km/h 82 % 0 mm 0 W/m2
05:12 9.8 °C 6.9 °C 1015.1 hPa WNW 9.7 km/h 29 km/h 82 % 0 mm 0 W/m2
05:17 9.8 °C 6.9 °C 1015.1 hPa WNW 11.3 km/h 29 km/h 82 % 0 mm 0 W/m2
05:22 9.8 °C 6.9 °C 1015.1 hPa WNW 14.5 km/h 29 km/h 82 % 0 mm 0 W/m2
05:27 9.8 °C 6.7 °C 1014.8 hPa WNW 14.5 km/h 29 km/h 81 % 0 mm 0 W/m2
05:32 9.8 °C 6.7 °C 1015.1 hPa WNW 16.1 km/h 37 km/h 81 % 0 mm 0 W/m2
05:37 9.8 °C 6.7 °C 1015.1 hPa WNW 17.7 km/h 37 km/h 81 % 0 mm 0 W/m2
05:42 9.8 °C 6.7 °C 1015.1 hPa WNW 17.7 km/h 37 km/h 81 % 0 mm 0 W/m2
05:47 9.8 °C 6.9 °C 1015.1 hPa WNW 12.9 km/h 33.8 km/h 82 % 0 mm 0 W/m2
05:52 9.8 °C 6.9 °C 1014.8 hPa WNW 12.9 km/h 25.7 km/h 82 % 0 mm 0 W/m2
05:57 9.8 °C 6.9 °C 1015.1 hPa WNW 14.5 km/h 25.7 km/h 82 % 0 mm 5 W/m2
06:02 9.8 °C 6.9 °C 1014.8 hPa WNW 14.5 km/h 25.7 km/h 82 % 0 mm 7 W/m2
06:07 9.8 °C 6.9 °C 1014.8 hPa WNW 14.5 km/h 29 km/h 82 % 0 mm 9 W/m2
06:18 9.7 °C 6.6 °C 1014.8 hPa WNW 19.3 km/h 32.2 km/h 81 % 0 mm 14 W/m2
06:23 9.7 °C 6.6 °C 1014.8 hPa WNW 19.3 km/h 33.8 km/h 81 % 0 mm 19 W/m2
06:28 9.7 °C 6.8 °C 1014.8 hPa WNW 16.1 km/h 33.8 km/h 82 % 0 mm 23 W/m2
06:33 9.7 °C 6.8 °C 1014.8 hPa WNW 12.9 km/h 22.5 km/h 82 % 0 mm 23 W/m2
06:34 9.7 °C 6.8 °C 1014.8 hPa WNW 12.9 km/h 22.5 km/h 82 % 0 mm 21 W/m2
06:39 9.7 °C 6.8 °C 1014.8 hPa WNW 16.1 km/h 30.6 km/h 82 % 0 mm 21 W/m2
06:44 9.7 °C 6.8 °C 1014.8 hPa WNW 19.3 km/h 37 km/h 82 % 0 mm 23 W/m2
06:49 9.6 °C 6.7 °C 1014.8 hPa WNW 20.9 km/h 37 km/h 82 % 0 mm 35 W/m2
06:54 9.6 °C 6.8 °C 1014.8 hPa WNW 17.7 km/h 33.8 km/h 83 % 0 mm 39 W/m2
06:59 9.5 °C 6.8 °C 1014.8 hPa WNW 16.1 km/h 32.2 km/h 83 % 0 mm 39 W/m2
07:04 9.4 °C 6.7 °C 1014.8 hPa WNW 16.1 km/h 32.2 km/h 83 % 0 mm 44 W/m2
07:09 9.4 °C 6.7 °C 1014.8 hPa WNW 14.5 km/h 30.6 km/h 83 % 0 mm 37 W/m2
07:15 9.4 °C 6.7 °C 1014.8 hPa WNW 16.1 km/h 25.7 km/h 83 % 0 mm 42 W/m2
07:20 9.4 °C 6.7 °C 1014.8 hPa WNW 16.1 km/h 25.7 km/h 83 % 0 mm 46 W/m2
07:25 9.4 °C 6.7 °C 1014.8 hPa WNW 16.1 km/h 29 km/h 83 % 0 mm 46 W/m2
07:30 9.4 °C 6.5 °C 1014.8 hPa WNW 16.1 km/h 29 km/h 82 % 0 mm 49 W/m2
07:35 9.4 °C 6.5 °C 1014.8 hPa WNW 14.5 km/h 25.7 km/h 82 % 0 mm 56 W/m2
07:40 9.4 °C 6.5 °C 1014.8 hPa WNW 14.5 km/h 25.7 km/h 82 % 0 mm 65 W/m2
07:45 9.4 °C 6.5 °C 1014.8 hPa WNW 14.5 km/h 25.7 km/h 82 % 0 mm 62 W/m2
07:50 9.5 °C 6.6 °C 1014.8 hPa WNW 14.5 km/h 22.5 km/h 82 % 0 mm 88 W/m2
07:55 9.5 °C 6.6 °C 1014.8 hPa WNW 14.5 km/h 32.2 km/h 82 % 0 mm 114 W/m2
08:00 9.6 °C 6.7 °C 1014.8 hPa WNW 16.1 km/h 32.2 km/h 82 % 0 mm 132 W/m2
08:05 9.7 °C 6.6 °C 1014.8 hPa WNW 16.1 km/h 29 km/h 81 % 0 mm 113 W/m2
08:10 9.8 °C 6.7 °C 1014.8 hPa WNW 17.7 km/h 32.2 km/h 81 % 0 mm 114 W/m2
08:15 9.9 °C 6.6 °C 1014.8 hPa WNW 19.3 km/h 32.2 km/h 80 % 0 mm 102 W/m2
08:20 9.9 °C 6.6 °C 1014.8 hPa WNW 19.3 km/h 32.2 km/h 80 % 0 mm 91 W/m2
08:25 9.9 °C 6.6 °C 1014.8 hPa WNW 17.7 km/h 32.2 km/h 80 % 0 mm 67 W/m2
08:30 9.9 °C 6.9 °C 1014.8 hPa WNW 16.1 km/h 25.7 km/h 82 % 0 mm 72 W/m2
08:35 9.7 °C 6.9 °C 1014.4 hPa WNW 14.5 km/h 25.7 km/h 83 % 0 mm 156 W/m2
08:40 9.6 °C 7 °C 1014.4 hPa WNW 16.1 km/h 25.7 km/h 84 % 0 mm 264 W/m2
08:45 9.7 °C 7.3 °C 1014.1 hPa WNW 17.7 km/h 25.7 km/h 85 % 0 mm 265 W/m2
08:50 9.8 °C 7.4 °C 1014.1 hPa WNW 16.1 km/h 25.7 km/h 85 % 0 mm 250 W/m2
08:55 9.9 °C 7.5 °C 1014.1 hPa WNW 16.1 km/h 25.7 km/h 85 % 0 mm 197 W/m2
09:00 9.9 °C 7.3 °C 1014.1 hPa WNW 14.5 km/h 25.7 km/h 84 % 0 mm 193 W/m2
09:05 10 °C 7.2 °C 1014.1 hPa WNW 16.1 km/h 29 km/h 83 % 0 mm 204 W/m2
09:10 10.1 °C 7.2 °C 1014.1 hPa WNW 17.7 km/h 29 km/h 82 % 0 mm 239 W/m2
09:15 10.3 °C 7.2 °C 1014.1 hPa WNW 16.1 km/h 32.2 km/h 81 % 0 mm 232 W/m2
09:20 10.5 °C 7.2 °C 1014.1 hPa WNW 17.7 km/h 32.2 km/h 80 % 0 mm 253 W/m2
09:25 10.8 °C 7.5 °C 1014.1 hPa WNW 16.1 km/h 25.7 km/h 80 % 0 mm 367 W/m2
09:30 11 °C 7.1 °C 1013.8 hPa WNW 17.7 km/h 37 km/h 77 % 0 mm 260 W/m2
09:35 11.2 °C 6.9 °C 1013.8 hPa WNW 19.3 km/h 37 km/h 75 % 0 mm 338 W/m2
09:40 11.3 °C 6.8 °C 1013.8 hPa WNW 20.9 km/h 35.4 km/h 74 % 0 mm 459 W/m2
09:45 11.4 °C 7.1 °C 1013.8 hPa WNW 22.5 km/h 37 km/h 75 % 0 mm 322 W/m2
09:50 11.4 °C 7.1 °C 1013.8 hPa WNW 20.9 km/h 37 km/h 75 % 0 mm 348 W/m2
09:56 11.4 °C 7.1 °C 1013.8 hPa West 19.3 km/h 33.8 km/h 75 % 0 mm 264 W/m2
10:01 11.3 °C 6.8 °C 1013.8 hPa West 22.5 km/h 38.6 km/h 74 % 0 mm 415 W/m2
10:06 11.4 °C 6.9 °C 1013.4 hPa WNW 22.5 km/h 38.6 km/h 74 % 0 mm 508 W/m2
10:11 11.7 °C 7 °C 1013.4 hPa WNW 19.3 km/h 40.2 km/h 73 % 0 mm 480 W/m2
10:16 11.9 °C 6.8 °C 1013.4 hPa WNW 22.5 km/h 40.2 km/h 71 % 0 mm 596 W/m2
10:21 12.2 °C 6.9 °C 1013.4 hPa WNW 24.1 km/h 40.2 km/h 70 % 0 mm 455 W/m2
10:26 12.3 °C 6.8 °C 1013.4 hPa WNW 22.5 km/h 35.4 km/h 69 % 0 mm 504 W/m2
10:31 12.3 °C 6.8 °C 1013.4 hPa WNW 20.9 km/h 35.4 km/h 69 % 0 mm 645 W/m2
10:36 12.4 °C 6.7 °C 1013.4 hPa WNW 20.9 km/h 35.4 km/h 68 % 0 mm 471 W/m2
10:41 12.5 °C 6.8 °C 1013.4 hPa WNW 20.9 km/h 38.6 km/h 68 % 0 mm 397 W/m2
10:46 12.6 °C 6.8 °C 1013.4 hPa WNW 22.5 km/h 38.6 km/h 68 % 0 mm 438 W/m2
10:51 12.6 °C 7.3 °C 1013.4 hPa WNW 22.5 km/h 38.6 km/h 70 % 0 mm 269 W/m2
10:56 12.1 °C 6.8 °C 1013.4 hPa WNW 22.5 km/h 43.5 km/h 70 % 0 mm 376 W/m2
11:01 12.1 °C 7.2 °C 1013.4 hPa WNW 20.9 km/h 43.5 km/h 72 % 0 mm 496 W/m2
11:06 12 °C 7.1 °C 1013.4 hPa WNW 19.3 km/h 35.4 km/h 72 % 0 mm 369 W/m2
11:11 11.7 °C 7 °C 1013.4 hPa West 20.9 km/h 35.4 km/h 73 % 0 mm 283 W/m2
11:16 11.4 °C 7.1 °C 1013.4 hPa WNW 19.3 km/h 33.8 km/h 75 % 0 mm 234 W/m2
11:21 11 °C 7.1 °C 1013.4 hPa WNW 19.3 km/h 32.2 km/h 77 % 0 mm 334 W/m2
11:26 10.9 °C 7 °C 1013.4 hPa West 16.1 km/h 30.6 km/h 77 % 0 mm 292 W/m2
11:31 11 °C 7.1 °C 1013.4 hPa WNW 14.5 km/h 29 km/h 77 % 0 mm 376 W/m2
11:36 11.1 °C 7 °C 1013.1 hPa West 16.1 km/h 33.8 km/h 76 % 0 mm 394 W/m2
11:41 11.1 °C 6.6 °C 1013.4 hPa West 19.3 km/h 33.8 km/h 74 % 0 mm 341 W/m2
11:46 11.2 °C 6.7 °C 1013.1 hPa WNW 17.7 km/h 33.8 km/h 74 % 0 mm 464 W/m2
11:51 11.4 °C 6.9 °C 1013.1 hPa WNW 16.1 km/h 24.1 km/h 74 % 0 mm 376 W/m2
11:56 11.6 °C 7.1 °C 1013.1 hPa West 16.1 km/h 25.7 km/h 74 % 0 mm 417 W/m2
12:01 11.8 °C 7.5 °C 1013.1 hPa WNW 12.9 km/h 25.7 km/h 75 % 0 mm 369 W/m2
12:06 11.9 °C 7 °C 1013.1 hPa West 14.5 km/h 32.2 km/h 72 % 0 mm 336 W/m2
12:11 12 °C 6.9 °C 1013.1 hPa WNW 16.1 km/h 32.2 km/h 71 % 0 mm 294 W/m2
12:16 12.1 °C 6.6 °C 1013.1 hPa WNW 14.5 km/h 25.7 km/h 69 % 0 mm 329 W/m2
12:21 12.1 °C 6.4 °C 1013.1 hPa NW 14.5 km/h 29 km/h 68 % 0 mm 364 W/m2
12:26 11.7 °C 6 °C 1013.1 hPa NNW 12.9 km/h 24.1 km/h 68 % 0 mm 271 W/m2
12:31 11.4 °C 5.9 °C 1013.1 hPa North 9.7 km/h 19.3 km/h 69 % 0 mm 239 W/m2
12:36 11.2 °C 5.9 °C 1013.1 hPa North 11.3 km/h 19.3 km/h 70 % 0 mm 288 W/m2
12:47 11.6 °C 5 °C 1012.8 hPa NW 14.5 km/h 29 km/h 64 % 0 mm 253 W/m2
12:51 11.8 °C 4.7 °C 1013.1 hPa NW 16.1 km/h 29 km/h 62 % 0 mm 308 W/m2
13:02 12.3 °C 5.2 °C 1012.8 hPa NW 14.5 km/h 29 km/h 62 % 0 mm 441 W/m2
13:07 12.5 °C 5.2 °C 1012.8 hPa NW 11.3 km/h 24.1 km/h 61 % 0 mm 241 W/m2
13:12 12.4 °C 4.6 °C 1012.8 hPa NW 12.9 km/h 24.1 km/h 59 % 0 mm 183 W/m2
13:17 12.2 °C 4.4 °C 1012.4 hPa NW 14.5 km/h 25.7 km/h 59 % 0 mm 209 W/m2
13:22 11.9 °C 4.4 °C 1012.4 hPa NW 14.5 km/h 25.7 km/h 60 % 0 mm 199 W/m2
13:27 11.8 °C 3.8 °C 1012.4 hPa NW 14.5 km/h 29 km/h 58 % 0 mm 179 W/m2
13:32 11.7 °C 3.4 °C 1012.4 hPa NW 14.5 km/h 29 km/h 57 % 0 mm 292 W/m2
13:37 11.8 °C 3.6 °C 1012.4 hPa NW 14.5 km/h 24.1 km/h 57 % 0 mm 260 W/m2
13:42 11.9 °C 3.7 °C 1012.4 hPa NW 12.9 km/h 24.1 km/h 57 % 0 mm 265 W/m2
13:47 12 °C 3.7 °C 1012.4 hPa NW 9.7 km/h 22.5 km/h 57 % 0 mm 214 W/m2
13:49 12.1 °C 3.8 °C 1012.4 hPa NW 9.7 km/h 22.5 km/h 57 % 0 mm 244 W/m2
13:54 12.1 °C 3.6 °C 1012.4 hPa NW 11.3 km/h 24.1 km/h 56 % 0 mm 276 W/m2
13:59 12.2 °C 3.7 °C 1012.1 hPa NW 12.9 km/h 24.1 km/h 56 % 0 mm 306 W/m2
14:04 12.3 °C 3.2 °C 1012.1 hPa NW 14.5 km/h 24.1 km/h 54 % 0 mm 301 W/m2
14:09 12.4 °C 3.1 °C 1012.1 hPa NW 14.5 km/h 29 km/h 53 % 0 mm 343 W/m2
14:14 12.8 °C 2.3 °C 1012.1 hPa NW 16.1 km/h 33.8 km/h 49 % 0 mm 1016 W/m2
14:19 13.4 °C 1.7 °C 1012.1 hPa WNW 20.9 km/h 40.2 km/h 45 % 0 mm 1011 W/m2
14:24 13.7 °C 0.7 °C 1012.1 hPa NW 22.5 km/h 40.2 km/h 41 % 0 mm 1032 W/m2
14:29 14 °C 1.6 °C 1012.1 hPa NW 20.9 km/h 37 km/h 43 % 0 mm 429 W/m2
14:34 14 °C 1.3 °C 1012.1 hPa WNW 19.3 km/h 37 km/h 42 % 0 mm 962 W/m2
14:39 14.1 °C 1.4 °C 1012.1 hPa WNW 20.9 km/h 38.6 km/h 42 % 0 mm 875 W/m2
14:44 14.1 °C 1.4 °C 1012.1 hPa WNW 24.1 km/h 41.8 km/h 42 % 0 mm 944 W/m2
14:49 13.8 °C 0.8 °C 1012.1 hPa WNW 25.7 km/h 41.8 km/h 41 % 0 mm 283 W/m2
14:54 13.2 °C 0.9 °C 1012.1 hPa WNW 25.7 km/h 43.5 km/h 43 % 0 mm 313 W/m2
14:59 12.8 °C 1.2 °C 1011.7 hPa WNW 24.1 km/h 43.5 km/h 45 % 0 mm 281 W/m2
15:04 12.8 °C 1.4 °C 1011.7 hPa WNW 20.9 km/h 37 km/h 46 % 0 mm 429 W/m2
15:10 12.7 °C 1.7 °C 1011.7 hPa West 22.5 km/h 41.8 km/h 47 % 0 mm 380 W/m2
15:15 12.6 °C 1.6 °C 1012.1 hPa WNW 24.1 km/h 41.8 km/h 47 % 0 mm 230 W/m2
15:20 12.4 °C 0.8 °C 1011.7 hPa WNW 20.9 km/h 40.2 km/h 45 % 0 mm 830 W/m2
15:25 12.4 °C 0.8 °C 1011.7 hPa WNW 22.5 km/h 43.5 km/h 45 % 0 mm 826 W/m2
15:30 12.5 °C 1.2 °C 1011.7 hPa WNW 20.9 km/h 43.5 km/h 46 % 0 mm 863 W/m2
15:35 12.3 °C 1 °C 1011.7 hPa WNW 20.9 km/h 40.2 km/h 46 % 0 mm 253 W/m2
15:40 12.4 °C 1.1 °C 1011.7 hPa WNW 22.5 km/h 43.5 km/h 46 % 0 mm 786 W/m2
15:45 12.5 °C 1.8 °C 1011.7 hPa WNW 24.1 km/h 43.5 km/h 48 % 0 mm 357 W/m2
15:50 12.5 °C 2.3 °C 1011.7 hPa WNW 24.1 km/h 41.8 km/h 50 % 0 mm 954 W/m2
15:55 12.9 °C 1.8 °C 1011.7 hPa WNW 24.1 km/h 40.2 km/h 47 % 0 mm 888 W/m2
16:00 12.5 °C 1.5 °C 1012.1 hPa WNW 27.4 km/h 46.7 km/h 47 % 0 mm 250 W/m2
16:05 11.6 °C 0.7 °C 1011.7 hPa WNW 29 km/h 46.7 km/h 47 % 0 mm 380 W/m2
16:10 11.6 °C 0.1 °C 1011.7 hPa West 25.7 km/h 45.1 km/h 45 % 0 mm 385 W/m2
16:15 11.7 °C -0.2 °C 1011.7 hPa WNW 22.5 km/h 37 km/h 44 % 0 mm 392 W/m2
16:20 11.8 °C -0.1 °C 1011.7 hPa WNW 22.5 km/h 41.8 km/h 44 % 0 mm 227 W/m2
16:25 12 °C -0.2 °C 1011.7 hPa WNW 20.9 km/h 41.8 km/h 43 % 0 mm 596 W/m2
16:30 11.9 °C -0.6 °C 1011.7 hPa WNW 25.7 km/h 48.3 km/h 42 % 0 mm 589 W/m2
16:35 11.8 °C -0.1 °C 1011.7 hPa WNW 25.7 km/h 48.3 km/h 44 % 0 mm 587 W/m2
16:40 11.7 °C -0.8 °C 1011.7 hPa WNW 24.1 km/h 45.1 km/h 42 % 0 mm 564 W/m2
16:45 11.4 °C -1.4 °C 1011.7 hPa WNW 27.4 km/h 48.3 km/h 41 % 0 mm 533 W/m2
16:50 11.4 °C -0.8 °C 1011.4 hPa WNW 24.1 km/h 48.3 km/h 43 % 0 mm 510 W/m2
16:56 11.6 °C -0.3 °C 1011.4 hPa WNW 20.9 km/h 41.8 km/h 44 % 0 mm 501 W/m2
17:01 11.4 °C -2.1 °C 1011.4 hPa WNW 25.7 km/h 51.5 km/h 39 % 0 mm 483 W/m2
17:06 11.2 °C -1.6 °C 1011.4 hPa WNW 30.6 km/h 51.5 km/h 41 % 0 mm 464 W/m2
17:11 11.2 °C -1.3 °C 1011.4 hPa WNW 27.4 km/h 48.3 km/h 42 % 0 mm 455 W/m2
17:16 11.2 °C -1.9 °C 1011.4 hPa WNW 25.7 km/h 46.7 km/h 40 % 0 mm 445 W/m2
17:21 10.9 °C -2.6 °C 1011.4 hPa WNW 29 km/h 46.7 km/h 39 % 0 mm 427 W/m2
17:26 10.8 °C -2.3 °C 1011.4 hPa WNW 29 km/h 46.7 km/h 40 % 0 mm 411 W/m2
17:31 10.8 °C -2.6 °C 1011.4 hPa WNW 25.7 km/h 43.5 km/h 39 % 0 mm 392 W/m2
17:36 10.8 °C -2.3 °C 1011.4 hPa WNW 25.7 km/h 43.5 km/h 40 % 0 mm 376 W/m2
17:41 10.7 °C -1.7 °C 1011.4 hPa WNW 25.7 km/h 53.1 km/h 42 % 0 mm 376 W/m2
17:46 10.5 °C -1.9 °C 1011.4 hPa WNW 25.7 km/h 53.1 km/h 42 % 0 mm 366 W/m2
17:51 10.2 °C -1.8 °C 1011.4 hPa WNW 27.4 km/h 49.9 km/h 43 % 0 mm 345 W/m2
17:56 10 °C -1.4 °C 1011.4 hPa WNW 32.2 km/h 54.7 km/h 45 % 0 mm 355 W/m2
18:01 9.9 °C -0.6 °C 1011.4 hPa WNW 30.6 km/h 54.7 km/h 48 % 0 mm 325 W/m2
18:06 9.8 °C -0.4 °C 1011.4 hPa WNW 27.4 km/h 45.1 km/h 49 % 0 mm 320 W/m2
18:11 9.8 °C -0.4 °C 1011.1 hPa WNW 24.1 km/h 43.5 km/h 49 % 0 mm 339 W/m2
18:16 9.8 °C -0.4 °C 1011.1 hPa WNW 22.5 km/h 38.6 km/h 49 % 0 mm 279 W/m2
18:21 9.8 °C -1.3 °C 1011.1 hPa WNW 24.1 km/h 51.5 km/h 46 % 0 mm 265 W/m2
18:26 9.5 °C -1.6 °C 1011.1 hPa WNW 25.7 km/h 51.5 km/h 46 % 0 mm 246 W/m2
18:31 9.4 °C -1.9 °C 1011.4 hPa WNW 25.7 km/h 48.3 km/h 45 % 0 mm 223 W/m2
18:36 9.3 °C -2.3 °C 1011.1 hPa WNW 25.7 km/h 45.1 km/h 44 % 0 mm 204 W/m2
18:41 9.3 °C -2.1 °C 1011.4 hPa WNW 24.1 km/h 45.1 km/h 45 % 0 mm 193 W/m2
18:46 9.1 °C -1.6 °C 1011.1 hPa WNW 20.9 km/h 45.1 km/h 47 % 0 mm 116 W/m2
18:51 8.8 °C -2.2 °C 1011.4 hPa WNW 22.5 km/h 53.1 km/h 46 % 0 mm 39 W/m2
18:56 8.3 °C -2.9 °C 1011.4 hPa WNW 25.7 km/h 53.1 km/h 45 % 0 mm 42 W/m2
19:01 8 °C -4.5 °C 1011.4 hPa WNW 27.4 km/h 51.5 km/h 41 % 0 mm 139 W/m2
19:06 7.9 °C -3.9 °C 1011.4 hPa WNW 24.1 km/h 46.7 km/h 43 % 0 mm 128 W/m2
19:11 7.9 °C -3.3 °C 1011.4 hPa NW 25.7 km/h 46.7 km/h 45 % 0 mm 111 W/m2
19:12 7.9 °C -3.3 °C 1011.4 hPa NW 25.7 km/h 46.7 km/h 45 % 0 mm 111 W/m2
19:17 7.8 °C -2.6 °C 1011.4 hPa WNW 25.7 km/h 46.7 km/h 48 % 0 mm 107 W/m2
19:22 7.7 °C -2.6 °C 1011.1 hPa WNW 25.7 km/h 46.7 km/h 48 % 0 mm 83 W/m2
19:27 7.6 °C -2.4 °C 1011.1 hPa WNW 27.4 km/h 46.7 km/h 49 % 0 mm 72 W/m2
19:32 7.4 °C -2.9 °C 1011.1 hPa WNW 25.7 km/h 41.8 km/h 48 % 0 mm 65 W/m2
19:37 7.2 °C -3.1 °C 1011.1 hPa WNW 22.5 km/h 40.2 km/h 48 % 0 mm 51 W/m2
19:42 7.1 °C -2.9 °C 1011.1 hPa WNW 22.5 km/h 40.2 km/h 49 % 0 mm 32 W/m2
19:52 6.8 °C -2.9 °C 1011.4 hPa WNW 19.3 km/h 37 km/h 50 % 0 mm 23 W/m2
19:57 6.7 °C -3 °C 1011.1 hPa WNW 17.7 km/h 37 km/h 50 % 0 mm 18 W/m2
20:02 6.5 °C -3.2 °C 1011.1 hPa WNW 16.1 km/h 32.2 km/h 50 % 0 mm 12 W/m2
20:07 6.3 °C -3.1 °C 1011.4 hPa WNW 16.1 km/h 33.8 km/h 51 % 0 mm 11 W/m2
20:12 6.2 °C -2.9 °C 1011.4 hPa WNW 17.7 km/h 35.4 km/h 52 % 0 mm 9 W/m2
20:17 6.1 °C -2.8 °C 1011.4 hPa WNW 16.1 km/h 35.4 km/h 53 % 0 mm 7 W/m2
20:22 5.9 °C -2.7 °C 1011.4 hPa WNW 17.7 km/h 35.4 km/h 54 % 0 mm 5 W/m2
20:27 5.8 °C -2.6 °C 1011.4 hPa WNW 17.7 km/h 35.4 km/h 55 % 0 mm 0 W/m2
20:32 5.7 °C -2.4 °C 1011.4 hPa WNW 14.5 km/h 29 km/h 56 % 0 mm 0 W/m2
20:37 5.6 °C -2.3 °C 1011.4 hPa WNW 16.1 km/h 30.6 km/h 57 % 0 mm 0 W/m2
20:42 5.5 °C -2.1 °C 1011.7 hPa WNW 16.1 km/h 35.4 km/h 58 % 0 mm 0 W/m2
20:47 5.4 °C -2 °C 1011.7 hPa WNW 12.9 km/h 35.4 km/h 59 % 0 mm 0 W/m2
20:52 5.3 °C -1.8 °C 1011.7 hPa NW 11.3 km/h 30.6 km/h 60 % 0 mm 0 W/m2
20:57 5.3 °C -1.6 °C 1012.1 hPa NW 12.9 km/h 30.6 km/h 61 % 0 mm 0 W/m2
21:02 5.2 °C -1.7 °C 1012.1 hPa NNW 11.3 km/h 29 km/h 61 % 0 mm 0 W/m2
21:08 5.1 °C -1.6 °C 1012.1 hPa NNW 11.3 km/h 29 km/h 62 % 0 mm 0 W/m2
21:13 5 °C -1.4 °C 1012.1 hPa NW 12.9 km/h 29 km/h 63 % 0 mm 0 W/m2
21:18 4.8 °C -1.4 °C 1012.1 hPa NW 12.9 km/h 25.7 km/h 64 % 0 mm 0 W/m2
21:23 4.7 °C -1.8 °C 1012.4 hPa NW 12.9 km/h 30.6 km/h 63 % 0 mm 0 W/m2
21:28 4.6 °C -1.6 °C 1012.4 hPa NW 14.5 km/h 30.6 km/h 64 % 0 mm 0 W/m2
21:33 4.6 °C -1.4 °C 1012.4 hPa NW 14.5 km/h 30.6 km/h 65 % 0 mm 0 W/m2
21:38 4.5 °C -1.3 °C 1012.4 hPa NW 12.9 km/h 25.7 km/h 66 % 0 mm 0 W/m2
21:43 4.4 °C -1.4 °C 1012.4 hPa WNW 14.5 km/h 30.6 km/h 66 % 0 mm 0 W/m2
21:48 4.4 °C -1.4 °C 1012.4 hPa WNW 16.1 km/h 30.6 km/h 66 % 0 mm 0 W/m2
21:53 4.3 °C -1.1 °C 1012.8 hPa WNW 16.1 km/h 33.8 km/h 68 % 0 mm 0 W/m2
21:58 4.2 °C -0.8 °C 1012.4 hPa WNW 16.1 km/h 33.8 km/h 70 % 0 mm 0 W/m2
22:03 4 °C -0.8 °C 1012.4 hPa WNW 14.5 km/h 32.2 km/h 71 % 0 mm 0 W/m2
22:08 3.9 °C -0.9 °C 1012.4 hPa WNW 14.5 km/h 29 km/h 71 % 0 mm 0 W/m2
22:13 3.7 °C -0.9 °C 1012.4 hPa WNW 14.5 km/h 29 km/h 72 % 0 mm 0 W/m2
22:18 3.6 °C -0.6 °C 1012.4 hPa WNW 14.5 km/h 25.7 km/h 74 % 0 mm 0 W/m2
22:23 3.4 °C -0.4 °C 1012.4 hPa WNW 14.5 km/h 25.7 km/h 76 % 0 mm 0 W/m2
22:28 3.2 °C -0.4 °C 1012.4 hPa WNW 12.9 km/h 24.1 km/h 77 % 0 mm 0 W/m2
22:33 3.1 °C -0.4 °C 1012.4 hPa WNW 9.7 km/h 19.3 km/h 78 % 0 mm 0 W/m2
22:38 3 °C -0.4 °C 1012.4 hPa WNW 8 km/h 20.9 km/h 78 % 0 mm 0 W/m2
22:43 2.9 °C -0.6 °C 1012.4 hPa WNW 8 km/h 20.9 km/h 78 % 0 mm 0 W/m2
22:48 2.8 °C -0.5 °C 1012.4 hPa WNW 9.7 km/h 17.7 km/h 79 % 0 mm 0 W/m2
22:53 2.7 °C -0.6 °C 1012.4 hPa WNW 9.7 km/h 16.1 km/h 79 % 0 mm 0 W/m2
22:58 2.6 °C -0.7 °C 1012.4 hPa WNW 8 km/h 16.1 km/h 79 % 0 mm 0 W/m2
23:03 2.6 °C -0.7 °C 1012.4 hPa WNW 3.2 km/h 12.9 km/h 79 % 0 mm 0 W/m2
23:08 2.5 °C -0.8 °C 1012.4 hPa WNW 1.6 km/h 9.7 km/h 79 % 0 mm 0 W/m2
23:13 2.4 °C -0.9 °C 1012.4 hPa Calm   3.2 km/h 79 % 0 mm 0 W/m2
23:18 2.3 °C -0.9 °C 1012.4 hPa Calm   3.2 km/h 79 % 0 mm 0 W/m2
23:23 2.1 °C -1.2 °C 1012.1 hPa WNW 3.2 km/h 14.5 km/h 79 % 0 mm 0 W/m2
23:28 2.1 °C -1.2 °C 1012.4 hPa NW 6.4 km/h 14.5 km/h 79 % 0 mm 0 W/m2
23:33 2.1 °C -1.2 °C 1012.4 hPa NW 6.4 km/h 14.5 km/h 79 % 0 mm 0 W/m2
23:38 2.1 °C -1.3 °C 1012.4 hPa WNW 8 km/h 17.7 km/h 78 % 0 mm 0 W/m2
23:43 2.1 °C -1.3 °C 1012.4 hPa WNW 6.4 km/h 17.7 km/h 78 % 0 mm 0 W/m2
23:44 2.1 °C -1.3 °C 1012.4 hPa WNW 6.4 km/h 17.7 km/h 78 % 0 mm 0 W/m2
23:49 2.1 °C -1.5 °C 1012.4 hPa WNW 4.8 km/h 12.9 km/h 77 % 0 mm 0 W/m2
23:54 2.1 °C -1.5 °C 1012.4 hPa WNW 6.4 km/h 17.7 km/h 77 % 0 mm 0 W/m2
23:59 2.1 °C -1.5 °C 1012.4 hPa WNW 9.7 km/h 20.9 km/h 77 % 0 mm 0 W/m2
Delerius-Weather
Compliments of Weather Underground - 2.25 mb

Data updates at regular intervals.